Aviation Digital Data Service (ADDS)

Output produced by METARs form (0202 UTC 30 July 2016)
found at http://aviationweather.gov/adds/metars/
 
KHPN 292327Z 3000/3024 16004KT P6SM SCT040 BKN150 
     FM300200 VRB03KT 6SM BR FEW040 SCT150 
     TEMPO 3008/3012 5SM BR 
     FM301200 06004KT P6SM BKN050 BKN150 
     FM301600 12005KT P6SM BKN050 BKN120 
     FM302000 16006KT P6SM BKN050 BKN120 AMD NOT SKED